<?xml version="1.0" encoding="UTF-8" standalone="no" ?>
<gpx xmlns="http://www.topografix.com/GPX/1/1" xmlns:xsi="http://www.w3.org/2001/XMLSchema-instance" xsi:schemaLocation="http://www.topografix.com/GPX/1/1 http://www.topografix.com/GPX/1/1/gpx.xsd" version="1.1" creator="VisuGPX - https://www.visugpx.com">
  <metadata>
    <name>Rallye 13km Salviac 2023</name>
  </metadata>
  <trk>
    <name><![CDATA[Rallye 13km Salviac 2023]]></name>
    <extensions>
      <line xmlns="http://www.topografix.com/GPX/gpx_style/0/2">
        <color>00FF00</color>
        <width>4</width>
          <extensions>
            <sens>1</sens>
          </extensions>
      </line>
    </extensions>
    <trkseg>
      <trkpt lat="44.6822" lon="1.27107">
        <ele>154.3</ele>
        <time>2000-01-01T02:10:04.000Z</time>
      </trkpt>
      <trkpt lat="44.68233" lon="1.27072">
        <ele>153</ele>
        <time>2000-01-01T02:10:14.000Z</time>
      </trkpt>
      <trkpt lat="44.68244" lon="1.27056">
        <ele>153.2</ele>
        <time>2000-01-01T02:10:24.000Z</time>
      </trkpt>
      <trkpt lat="44.68256" lon="1.27042">
        <ele>152</ele>
        <time>2000-01-01T02:10:34.000Z</time>
      </trkpt>
      <trkpt lat="44.68302" lon="1.2704">
        <ele>152</ele>
        <time>2000-01-01T02:10:44.000Z</time>
      </trkpt>
      <trkpt lat="44.68325" lon="1.27038">
        <ele>152</ele>
        <time>2000-01-01T02:10:54.000Z</time>
      </trkpt>
      <trkpt lat="44.68357" lon="1.27031">
        <ele>152</ele>
        <time>2000-01-01T02:11:04.000Z</time>
      </trkpt>
      <trkpt lat="44.6837" lon="1.2703">
        <ele>152</ele>
        <time>2000-01-01T02:11:14.000Z</time>
      </trkpt>
      <trkpt lat="44.68376" lon="1.27016">
        <ele>152</ele>
        <time>2000-01-01T02:11:24.000Z</time>
      </trkpt>
      <trkpt lat="44.68376" lon="1.27013">
        <ele>152</ele>
        <time>2000-01-01T02:11:34.000Z</time>
      </trkpt>
      <trkpt lat="44.68376" lon="1.27013">
        <ele>152</ele>
        <time>2000-01-01T01:06:04.000Z</time>
      </trkpt>
      <trkpt lat="44.6837" lon="1.26976">
        <ele>152</ele>
        <time>2000-01-01T01:06:14.000Z</time>
      </trkpt>
      <trkpt lat="44.68371" lon="1.26958">
        <ele>153.4</ele>
        <time>2000-01-01T01:06:24.000Z</time>
      </trkpt>
      <trkpt lat="44.68377" lon="1.26954">
        <ele>154</ele>
        <time>2000-01-01T01:06:34.000Z</time>
      </trkpt>
      <trkpt lat="44.68405" lon="1.26974">
        <ele>154</ele>
        <time>2000-01-01T01:06:44.000Z</time>
      </trkpt>
      <trkpt lat="44.68422" lon="1.26946">
        <ele>154</ele>
        <time>2000-01-01T01:06:54.000Z</time>
      </trkpt>
      <trkpt lat="44.68416" lon="1.26916">
        <ele>154</ele>
        <time>2000-01-01T01:07:04.000Z</time>
      </trkpt>
      <trkpt lat="44.684" lon="1.26883">
        <ele>154</ele>
        <time>2000-01-01T01:07:14.000Z</time>
      </trkpt>
      <trkpt lat="44.68388" lon="1.26853">
        <ele>155</ele>
        <time>2000-01-01T01:07:24.000Z</time>
      </trkpt>
      <trkpt lat="44.68376" lon="1.26821">
        <ele>155</ele>
        <time>2000-01-01T01:07:34.000Z</time>
      </trkpt>
      <trkpt lat="44.68366" lon="1.26788">
        <ele>156</ele>
        <time>2000-01-01T01:07:44.000Z</time>
      </trkpt>
      <trkpt lat="44.68354" lon="1.26752">
        <ele>157</ele>
        <time>2000-01-01T01:07:54.000Z</time>
      </trkpt>
      <trkpt lat="44.68354" lon="1.2672">
        <ele>157</ele>
        <time>2000-01-01T01:08:04.000Z</time>
      </trkpt>
      <trkpt lat="44.68362" lon="1.26686">
        <ele>158</ele>
        <time>2000-01-01T01:08:14.000Z</time>
      </trkpt>
      <trkpt lat="44.68372" lon="1.26649">
        <ele>158</ele>
        <time>2000-01-01T01:08:24.000Z</time>
      </trkpt>
      <trkpt lat="44.68378" lon="1.26613">
        <ele>158</ele>
        <time>2000-01-01T01:08:34.000Z</time>
      </trkpt>
      <trkpt lat="44.68378" lon="1.26559">
        <ele>158</ele>
        <time>2000-01-01T01:08:44.000Z</time>
      </trkpt>
      <trkpt lat="44.68375" lon="1.26518">
        <ele>159</ele>
        <time>2000-01-01T01:08:54.000Z</time>
      </trkpt>
      <trkpt lat="44.6837" lon="1.26452">
        <ele>159</ele>
        <time>2000-01-01T01:09:04.000Z</time>
      </trkpt>
      <trkpt lat="44.68364" lon="1.26413">
        <ele>160</ele>
        <time>2000-01-01T01:09:14.000Z</time>
      </trkpt>
      <trkpt lat="44.68355" lon="1.26359">
        <ele>161</ele>
        <time>2000-01-01T01:09:24.000Z</time>
      </trkpt>
      <trkpt lat="44.68329" lon="1.2636">
        <ele>161</ele>
        <time>2000-01-01T01:09:34.000Z</time>
      </trkpt>
      <trkpt lat="44.683" lon="1.26361">
        <ele>160</ele>
        <time>2000-01-01T01:09:44.000Z</time>
      </trkpt>
      <trkpt lat="44.68289" lon="1.26355">
        <ele>159.3</ele>
        <time>2000-01-01T01:09:54.000Z</time>
      </trkpt>
      <trkpt lat="44.68273" lon="1.26333">
        <ele>159</ele>
        <time>2000-01-01T01:10:04.000Z</time>
      </trkpt>
      <trkpt lat="44.68257" lon="1.26288">
        <ele>159</ele>
        <time>2000-01-01T01:10:14.000Z</time>
      </trkpt>
      <trkpt lat="44.68245" lon="1.26275">
        <ele>159.7</ele>
        <time>2000-01-01T01:10:24.000Z</time>
      </trkpt>
      <trkpt lat="44.68188" lon="1.26287">
        <ele>159</ele>
        <time>2000-01-01T01:10:34.000Z</time>
      </trkpt>
      <trkpt lat="44.68181" lon="1.26294">
        <ele>158</ele>
        <time>2000-01-01T01:10:44.000Z</time>
      </trkpt>
      <trkpt lat="44.68131" lon="1.2628">
        <ele>159</ele>
        <time>2000-01-01T01:10:54.000Z</time>
      </trkpt>
      <trkpt lat="44.68126" lon="1.26246">
        <ele>159</ele>
        <time>2000-01-01T01:11:04.000Z</time>
      </trkpt>
      <trkpt lat="44.68121" lon="1.2621">
        <ele>159</ele>
        <time>2000-01-01T01:11:14.000Z</time>
      </trkpt>
      <trkpt lat="44.68117" lon="1.26168">
        <ele>159</ele>
        <time>2000-01-01T01:11:24.000Z</time>
      </trkpt>
      <trkpt lat="44.68114" lon="1.26133">
        <ele>159</ele>
        <time>2000-01-01T01:11:34.000Z</time>
      </trkpt>
      <trkpt lat="44.68111" lon="1.26095">
        <ele>159</ele>
        <time>2000-01-01T01:11:44.000Z</time>
      </trkpt>
      <trkpt lat="44.68105" lon="1.26065">
        <ele>160</ele>
        <time>2000-01-01T01:11:54.000Z</time>
      </trkpt>
      <trkpt lat="44.68091" lon="1.26052">
        <ele>160.9</ele>
        <time>2000-01-01T01:12:04.000Z</time>
      </trkpt>
      <trkpt lat="44.68041" lon="1.2605">
        <ele>160</ele>
        <time>2000-01-01T01:12:14.000Z</time>
      </trkpt>
      <trkpt lat="44.68011" lon="1.2605">
        <ele>163</ele>
        <time>2000-01-01T01:12:24.000Z</time>
      </trkpt>
      <trkpt lat="44.68001" lon="1.26027">
        <ele>164</ele>
        <time>2000-01-01T01:12:34.000Z</time>
      </trkpt>
      <trkpt lat="44.6799" lon="1.25992">
        <ele>166</ele>
        <time>2000-01-01T01:12:44.000Z</time>
      </trkpt>
      <trkpt lat="44.67976" lon="1.25945">
        <ele>171</ele>
        <time>2000-01-01T01:12:54.000Z</time>
      </trkpt>
      <trkpt lat="44.6796" lon="1.25922">
        <ele>174</ele>
        <time>2000-01-01T01:13:04.000Z</time>
      </trkpt>
      <trkpt lat="44.67937" lon="1.25904">
        <ele>174</ele>
        <time>2000-01-01T01:13:14.000Z</time>
      </trkpt>
      <trkpt lat="44.67912" lon="1.2589">
        <ele>174</ele>
        <time>2000-01-01T01:13:24.000Z</time>
      </trkpt>
      <trkpt lat="44.67885" lon="1.25889">
        <ele>177</ele>
        <time>2000-01-01T01:13:34.000Z</time>
      </trkpt>
      <trkpt lat="44.67848" lon="1.25888">
        <ele>177</ele>
        <time>2000-01-01T01:13:44.000Z</time>
      </trkpt>
      <trkpt lat="44.67833" lon="1.25883">
        <ele>178</ele>
        <time>2000-01-01T01:13:54.000Z</time>
      </trkpt>
      <trkpt lat="44.67818" lon="1.25876">
        <ele>179</ele>
        <time>2000-01-01T01:14:04.000Z</time>
      </trkpt>
      <trkpt lat="44.67787" lon="1.25888">
        <ele>179</ele>
        <time>2000-01-01T01:14:14.000Z</time>
      </trkpt>
      <trkpt lat="44.67752" lon="1.25887">
        <ele>177</ele>
        <time>2000-01-01T01:14:24.000Z</time>
      </trkpt>
      <trkpt lat="44.67742" lon="1.25893">
        <ele>176.2</ele>
        <time>2000-01-01T01:14:34.000Z</time>
      </trkpt>
      <trkpt lat="44.67732" lon="1.25938">
        <ele>178</ele>
        <time>2000-01-01T01:14:44.000Z</time>
      </trkpt>
      <trkpt lat="44.67701" lon="1.2592">
        <ele>178</ele>
        <time>2000-01-01T01:14:54.000Z</time>
      </trkpt>
      <trkpt lat="44.6767" lon="1.25902">
        <ele>178</ele>
        <time>2000-01-01T01:15:04.000Z</time>
      </trkpt>
      <trkpt lat="44.6763" lon="1.25879">
        <ele>181</ele>
        <time>2000-01-01T01:15:14.000Z</time>
      </trkpt>
      <trkpt lat="44.67597" lon="1.25853">
        <ele>183</ele>
        <time>2000-01-01T01:15:24.000Z</time>
      </trkpt>
      <trkpt lat="44.67567" lon="1.25838">
        <ele>183</ele>
        <time>2000-01-01T01:15:34.000Z</time>
      </trkpt>
      <trkpt lat="44.67542" lon="1.25826">
        <ele>183</ele>
        <time>2000-01-01T01:15:44.000Z</time>
      </trkpt>
      <trkpt lat="44.67511" lon="1.25811">
        <ele>185</ele>
        <time>2000-01-01T01:15:54.000Z</time>
      </trkpt>
      <trkpt lat="44.67499" lon="1.25809">
        <ele>187.3</ele>
        <time>2000-01-01T01:16:04.000Z</time>
      </trkpt>
      <trkpt lat="44.67482" lon="1.25813">
        <ele>187</ele>
        <time>2000-01-01T01:16:14.000Z</time>
      </trkpt>
      <trkpt lat="44.6746" lon="1.25792">
        <ele>189</ele>
        <time>2000-01-01T01:16:24.000Z</time>
      </trkpt>
      <trkpt lat="44.67434" lon="1.25767">
        <ele>189</ele>
        <time>2000-01-01T01:16:34.000Z</time>
      </trkpt>
      <trkpt lat="44.67411" lon="1.25749">
        <ele>189</ele>
        <time>2000-01-01T01:16:44.000Z</time>
      </trkpt>
      <trkpt lat="44.67376" lon="1.25732">
        <ele>193</ele>
        <time>2000-01-01T01:16:54.000Z</time>
      </trkpt>
      <trkpt lat="44.67358" lon="1.25719">
        <ele>193</ele>
        <time>2000-01-01T01:17:04.000Z</time>
      </trkpt>
      <trkpt lat="44.67321" lon="1.25683">
        <ele>193</ele>
        <time>2000-01-01T01:17:14.000Z</time>
      </trkpt>
      <trkpt lat="44.67286" lon="1.25646">
        <ele>197</ele>
        <time>2000-01-01T01:17:24.000Z</time>
      </trkpt>
      <trkpt lat="44.67265" lon="1.25621">
        <ele>198</ele>
        <time>2000-01-01T01:17:34.000Z</time>
      </trkpt>
      <trkpt lat="44.67243" lon="1.25604">
        <ele>199</ele>
        <time>2000-01-01T01:17:44.000Z</time>
      </trkpt>
      <trkpt lat="44.67228" lon="1.25598">
        <ele>201.3</ele>
        <time>2000-01-01T01:17:54.000Z</time>
      </trkpt>
      <trkpt lat="44.67179" lon="1.25593">
        <ele>204</ele>
        <time>2000-01-01T01:18:04.000Z</time>
      </trkpt>
      <trkpt lat="44.67157" lon="1.25594">
        <ele>206</ele>
        <time>2000-01-01T01:18:14.000Z</time>
      </trkpt>
      <trkpt lat="44.67129" lon="1.25597">
        <ele>208</ele>
        <time>2000-01-01T01:18:24.000Z</time>
      </trkpt>
      <trkpt lat="44.67088" lon="1.25575">
        <ele>211</ele>
        <time>2000-01-01T01:18:34.000Z</time>
      </trkpt>
      <trkpt lat="44.67074" lon="1.25559">
        <ele>213</ele>
        <time>2000-01-01T01:18:44.000Z</time>
      </trkpt>
      <trkpt lat="44.6711" lon="1.25514">
        <ele>227</ele>
        <time>2000-01-01T01:18:54.000Z</time>
      </trkpt>
      <trkpt lat="44.67128" lon="1.25483">
        <ele>235</ele>
        <time>2000-01-01T01:19:04.000Z</time>
      </trkpt>
      <trkpt lat="44.67154" lon="1.25436">
        <ele>239</ele>
        <time>2000-01-01T01:19:14.000Z</time>
      </trkpt>
      <trkpt lat="44.67135" lon="1.25426">
        <ele>242</ele>
        <time>2000-01-01T01:19:24.000Z</time>
      </trkpt>
      <trkpt lat="44.67106" lon="1.25408">
        <ele>245</ele>
        <time>2000-01-01T01:19:34.000Z</time>
      </trkpt>
      <trkpt lat="44.67083" lon="1.2539">
        <ele>246</ele>
        <time>2000-01-01T01:19:44.000Z</time>
      </trkpt>
      <trkpt lat="44.67054" lon="1.25369">
        <ele>248</ele>
        <time>2000-01-01T01:19:54.000Z</time>
      </trkpt>
      <trkpt lat="44.67019" lon="1.25345">
        <ele>250</ele>
        <time>2000-01-01T01:20:04.000Z</time>
      </trkpt>
      <trkpt lat="44.66983" lon="1.25316">
        <ele>255</ele>
        <time>2000-01-01T01:20:14.000Z</time>
      </trkpt>
      <trkpt lat="44.66961" lon="1.25302">
        <ele>257</ele>
        <time>2000-01-01T01:20:24.000Z</time>
      </trkpt>
      <trkpt lat="44.66938" lon="1.25288">
        <ele>264</ele>
        <time>2000-01-01T01:20:34.000Z</time>
      </trkpt>
      <trkpt lat="44.66905" lon="1.25279">
        <ele>265</ele>
        <time>2000-01-01T01:20:44.000Z</time>
      </trkpt>
      <trkpt lat="44.66859" lon="1.25275">
        <ele>266</ele>
        <time>2000-01-01T01:20:54.000Z</time>
      </trkpt>
      <trkpt lat="44.66841" lon="1.25267">
        <ele>266.4</ele>
        <time>2000-01-01T01:21:04.000Z</time>
      </trkpt>
      <trkpt lat="44.66821" lon="1.25255">
        <ele>267</ele>
        <time>2000-01-01T01:21:14.000Z</time>
      </trkpt>
      <trkpt lat="44.66802" lon="1.2523">
        <ele>267</ele>
        <time>2000-01-01T01:21:24.000Z</time>
      </trkpt>
      <trkpt lat="44.66778" lon="1.252">
        <ele>268</ele>
        <time>2000-01-01T01:21:34.000Z</time>
      </trkpt>
      <trkpt lat="44.66756" lon="1.25176">
        <ele>268</ele>
        <time>2000-01-01T01:21:44.000Z</time>
      </trkpt>
      <trkpt lat="44.66726" lon="1.25144">
        <ele>269</ele>
        <time>2000-01-01T01:21:54.000Z</time>
      </trkpt>
      <trkpt lat="44.667" lon="1.25129">
        <ele>271</ele>
        <time>2000-01-01T01:22:04.000Z</time>
      </trkpt>
      <trkpt lat="44.66662" lon="1.25107">
        <ele>277</ele>
        <time>2000-01-01T01:22:14.000Z</time>
      </trkpt>
      <trkpt lat="44.66641" lon="1.25085">
        <ele>281</ele>
        <time>2000-01-01T01:22:24.000Z</time>
      </trkpt>
      <trkpt lat="44.66618" lon="1.25061">
        <ele>283</ele>
        <time>2000-01-01T01:22:34.000Z</time>
      </trkpt>
      <trkpt lat="44.66598" lon="1.25042">
        <ele>289</ele>
        <time>2000-01-01T01:22:44.000Z</time>
      </trkpt>
      <trkpt lat="44.66576" lon="1.25021">
        <ele>292</ele>
        <time>2000-01-01T01:22:54.000Z</time>
      </trkpt>
      <trkpt lat="44.66555" lon="1.25">
        <ele>295</ele>
        <time>2000-01-01T01:23:04.000Z</time>
      </trkpt>
      <trkpt lat="44.66537" lon="1.24984">
        <ele>296</ele>
        <time>2000-01-01T01:23:14.000Z</time>
      </trkpt>
      <trkpt lat="44.66523" lon="1.24975">
        <ele>296.9</ele>
        <time>2000-01-01T01:23:24.000Z</time>
      </trkpt>
      <trkpt lat="44.66425" lon="1.24976">
        <ele>298</ele>
        <time>2000-01-01T01:23:34.000Z</time>
      </trkpt>
      <trkpt lat="44.66405" lon="1.24974">
        <ele>298</ele>
        <time>2000-01-01T01:23:44.000Z</time>
      </trkpt>
      <trkpt lat="44.66381" lon="1.24979">
        <ele>297</ele>
        <time>2000-01-01T01:23:54.000Z</time>
      </trkpt>
      <trkpt lat="44.66357" lon="1.24985">
        <ele>297</ele>
        <time>2000-01-01T01:24:04.000Z</time>
      </trkpt>
      <trkpt lat="44.66338" lon="1.24977">
        <ele>297</ele>
        <time>2000-01-01T01:24:14.000Z</time>
      </trkpt>
      <trkpt lat="44.6632" lon="1.24963">
        <ele>297</ele>
        <time>2000-01-01T01:24:24.000Z</time>
      </trkpt>
      <trkpt lat="44.66293" lon="1.24949">
        <ele>297</ele>
        <time>2000-01-01T01:24:34.000Z</time>
      </trkpt>
      <trkpt lat="44.66262" lon="1.24936">
        <ele>299</ele>
        <time>2000-01-01T01:24:44.000Z</time>
      </trkpt>
      <trkpt lat="44.66231" lon="1.24923">
        <ele>301</ele>
        <time>2000-01-01T01:24:54.000Z</time>
      </trkpt>
      <trkpt lat="44.662" lon="1.2491">
        <ele>302</ele>
        <time>2000-01-01T01:25:04.000Z</time>
      </trkpt>
      <trkpt lat="44.66172" lon="1.249">
        <ele>300</ele>
        <time>2000-01-01T01:25:14.000Z</time>
      </trkpt>
      <trkpt lat="44.66131" lon="1.24886">
        <ele>299</ele>
        <time>2000-01-01T01:25:24.000Z</time>
      </trkpt>
      <trkpt lat="44.66111" lon="1.24873">
        <ele>297</ele>
        <time>2000-01-01T01:25:34.000Z</time>
      </trkpt>
      <trkpt lat="44.6608" lon="1.24876">
        <ele>292</ele>
        <time>2000-01-01T01:25:44.000Z</time>
      </trkpt>
      <trkpt lat="44.66054" lon="1.24879">
        <ele>292</ele>
        <time>2000-01-01T01:25:54.000Z</time>
      </trkpt>
      <trkpt lat="44.66022" lon="1.24883">
        <ele>293</ele>
        <time>2000-01-01T01:26:04.000Z</time>
      </trkpt>
      <trkpt lat="44.6598" lon="1.2488">
        <ele>295</ele>
        <time>2000-01-01T01:26:14.000Z</time>
      </trkpt>
      <trkpt lat="44.65969" lon="1.24878">
        <ele>296.7</ele>
        <time>2000-01-01T01:26:24.000Z</time>
      </trkpt>
      <trkpt lat="44.65928" lon="1.24851">
        <ele>300</ele>
        <time>2000-01-01T01:26:34.000Z</time>
      </trkpt>
      <trkpt lat="44.65902" lon="1.24841">
        <ele>301</ele>
        <time>2000-01-01T01:26:44.000Z</time>
      </trkpt>
      <trkpt lat="44.65867" lon="1.24828">
        <ele>301</ele>
        <time>2000-01-01T01:26:54.000Z</time>
      </trkpt>
      <trkpt lat="44.65845" lon="1.24864">
        <ele>303</ele>
        <time>2000-01-01T01:27:04.000Z</time>
      </trkpt>
      <trkpt lat="44.65866" lon="1.24884">
        <ele>305</ele>
        <time>2000-01-01T01:27:14.000Z</time>
      </trkpt>
      <trkpt lat="44.65889" lon="1.24907">
        <ele>305</ele>
        <time>2000-01-01T01:27:24.000Z</time>
      </trkpt>
      <trkpt lat="44.65911" lon="1.24941">
        <ele>307</ele>
        <time>2000-01-01T01:27:34.000Z</time>
      </trkpt>
      <trkpt lat="44.65938" lon="1.2496">
        <ele>307</ele>
        <time>2000-01-01T01:27:44.000Z</time>
      </trkpt>
      <trkpt lat="44.65964" lon="1.24987">
        <ele>308</ele>
        <time>2000-01-01T01:27:54.000Z</time>
      </trkpt>
      <trkpt lat="44.65987" lon="1.25025">
        <ele>309</ele>
        <time>2000-01-01T01:28:04.000Z</time>
      </trkpt>
      <trkpt lat="44.66003" lon="1.2505">
        <ele>309</ele>
        <time>2000-01-01T01:28:14.000Z</time>
      </trkpt>
      <trkpt lat="44.66028" lon="1.25061">
        <ele>309</ele>
        <time>2000-01-01T01:28:24.000Z</time>
      </trkpt>
      <trkpt lat="44.66057" lon="1.25075">
        <ele>308</ele>
        <time>2000-01-01T01:28:34.000Z</time>
      </trkpt>
      <trkpt lat="44.66099" lon="1.25107">
        <ele>305</ele>
        <time>2000-01-01T01:28:44.000Z</time>
      </trkpt>
      <trkpt lat="44.66139" lon="1.25132">
        <ele>299</ele>
        <time>2000-01-01T01:28:54.000Z</time>
      </trkpt>
      <trkpt lat="44.66161" lon="1.25149">
        <ele>299</ele>
        <time>2000-01-01T01:29:04.000Z</time>
      </trkpt>
      <trkpt lat="44.66187" lon="1.25169">
        <ele>295</ele>
        <time>2000-01-01T01:29:14.000Z</time>
      </trkpt>
      <trkpt lat="44.66211" lon="1.25192">
        <ele>289</ele>
        <time>2000-01-01T01:29:24.000Z</time>
      </trkpt>
      <trkpt lat="44.66199" lon="1.25229">
        <ele>277</ele>
        <time>2000-01-01T01:29:34.000Z</time>
      </trkpt>
      <trkpt lat="44.66182" lon="1.25284">
        <ele>272</ele>
        <time>2000-01-01T01:29:44.000Z</time>
      </trkpt>
      <trkpt lat="44.6619" lon="1.25337">
        <ele>265</ele>
        <time>2000-01-01T01:29:54.000Z</time>
      </trkpt>
      <trkpt lat="44.66199" lon="1.25362">
        <ele>262</ele>
        <time>2000-01-01T01:30:04.000Z</time>
      </trkpt>
      <trkpt lat="44.66217" lon="1.25388">
        <ele>261</ele>
        <time>2000-01-01T01:30:14.000Z</time>
      </trkpt>
      <trkpt lat="44.66237" lon="1.25418">
        <ele>257</ele>
        <time>2000-01-01T01:30:24.000Z</time>
      </trkpt>
      <trkpt lat="44.66243" lon="1.25443">
        <ele>254.1</ele>
        <time>2000-01-01T01:30:34.000Z</time>
      </trkpt>
      <trkpt lat="44.66272" lon="1.25484">
        <ele>250</ele>
        <time>2000-01-01T01:30:44.000Z</time>
      </trkpt>
      <trkpt lat="44.66281" lon="1.25521">
        <ele>249</ele>
        <time>2000-01-01T01:30:54.000Z</time>
      </trkpt>
      <trkpt lat="44.66294" lon="1.25574">
        <ele>246</ele>
        <time>2000-01-01T01:31:04.000Z</time>
      </trkpt>
      <trkpt lat="44.66299" lon="1.25602">
        <ele>244</ele>
        <time>2000-01-01T01:31:14.000Z</time>
      </trkpt>
      <trkpt lat="44.663" lon="1.25621">
        <ele>245.1</ele>
        <time>2000-01-01T01:31:24.000Z</time>
      </trkpt>
      <trkpt lat="44.66294" lon="1.25652">
        <ele>242</ele>
        <time>2000-01-01T01:31:34.000Z</time>
      </trkpt>
      <trkpt lat="44.66287" lon="1.25682">
        <ele>240</ele>
        <time>2000-01-01T01:31:44.000Z</time>
      </trkpt>
      <trkpt lat="44.6628" lon="1.25699">
        <ele>241.8</ele>
        <time>2000-01-01T01:31:54.000Z</time>
      </trkpt>
      <trkpt lat="44.66258" lon="1.25731">
        <ele>236</ele>
        <time>2000-01-01T01:32:04.000Z</time>
      </trkpt>
      <trkpt lat="44.66234" lon="1.25768">
        <ele>235</ele>
        <time>2000-01-01T01:32:14.000Z</time>
      </trkpt>
      <trkpt lat="44.66221" lon="1.25796">
        <ele>233</ele>
        <time>2000-01-01T01:32:24.000Z</time>
      </trkpt>
      <trkpt lat="44.66207" lon="1.25829">
        <ele>231</ele>
        <time>2000-01-01T01:32:34.000Z</time>
      </trkpt>
      <trkpt lat="44.66187" lon="1.25875">
        <ele>228</ele>
        <time>2000-01-01T01:32:44.000Z</time>
      </trkpt>
      <trkpt lat="44.66169" lon="1.25933">
        <ele>223</ele>
        <time>2000-01-01T01:32:54.000Z</time>
      </trkpt>
      <trkpt lat="44.66159" lon="1.25961">
        <ele>221</ele>
        <time>2000-01-01T01:33:04.000Z</time>
      </trkpt>
      <trkpt lat="44.66155" lon="1.25995">
        <ele>220</ele>
        <time>2000-01-01T01:33:14.000Z</time>
      </trkpt>
      <trkpt lat="44.66153" lon="1.26017">
        <ele>221.6</ele>
        <time>2000-01-01T01:33:24.000Z</time>
      </trkpt>
      <trkpt lat="44.66163" lon="1.26044">
        <ele>218</ele>
        <time>2000-01-01T01:33:34.000Z</time>
      </trkpt>
      <trkpt lat="44.66176" lon="1.26094">
        <ele>216</ele>
        <time>2000-01-01T01:33:44.000Z</time>
      </trkpt>
      <trkpt lat="44.66183" lon="1.26109">
        <ele>218</ele>
        <time>2000-01-01T01:33:54.000Z</time>
      </trkpt>
      <trkpt lat="44.66206" lon="1.26149">
        <ele>216</ele>
        <time>2000-01-01T01:34:04.000Z</time>
      </trkpt>
      <trkpt lat="44.66229" lon="1.26174">
        <ele>213</ele>
        <time>2000-01-01T01:34:14.000Z</time>
      </trkpt>
      <trkpt lat="44.6625" lon="1.26211">
        <ele>212</ele>
        <time>2000-01-01T01:34:24.000Z</time>
      </trkpt>
      <trkpt lat="44.6627" lon="1.26247">
        <ele>211</ele>
        <time>2000-01-01T01:34:34.000Z</time>
      </trkpt>
      <trkpt lat="44.66297" lon="1.26294">
        <ele>207</ele>
        <time>2000-01-01T01:34:44.000Z</time>
      </trkpt>
      <trkpt lat="44.66276" lon="1.26301">
        <ele>207</ele>
        <time>2000-01-01T01:34:54.000Z</time>
      </trkpt>
      <trkpt lat="44.66236" lon="1.26312">
        <ele>214</ele>
        <time>2000-01-01T01:35:04.000Z</time>
      </trkpt>
      <trkpt lat="44.66208" lon="1.26319">
        <ele>220</ele>
        <time>2000-01-01T01:35:14.000Z</time>
      </trkpt>
      <trkpt lat="44.66169" lon="1.26328">
        <ele>229</ele>
        <time>2000-01-01T01:35:24.000Z</time>
      </trkpt>
      <trkpt lat="44.66147" lon="1.26336">
        <ele>232</ele>
        <time>2000-01-01T01:35:34.000Z</time>
      </trkpt>
      <trkpt lat="44.66128" lon="1.26342">
        <ele>237</ele>
        <time>2000-01-01T01:35:44.000Z</time>
      </trkpt>
      <trkpt lat="44.66112" lon="1.2637">
        <ele>239</ele>
        <time>2000-01-01T01:35:54.000Z</time>
      </trkpt>
      <trkpt lat="44.66095" lon="1.26401">
        <ele>244</ele>
        <time>2000-01-01T01:36:04.000Z</time>
      </trkpt>
      <trkpt lat="44.66072" lon="1.26427">
        <ele>248</ele>
        <time>2000-01-01T01:36:14.000Z</time>
      </trkpt>
      <trkpt lat="44.66038" lon="1.26466">
        <ele>252</ele>
        <time>2000-01-01T01:36:24.000Z</time>
      </trkpt>
      <trkpt lat="44.66002" lon="1.26501">
        <ele>252</ele>
        <time>2000-01-01T01:36:34.000Z</time>
      </trkpt>
      <trkpt lat="44.65979" lon="1.26509">
        <ele>252</ele>
        <time>2000-01-01T01:36:44.000Z</time>
      </trkpt>
      <trkpt lat="44.65955" lon="1.26518">
        <ele>251</ele>
        <time>2000-01-01T01:36:54.000Z</time>
      </trkpt>
      <trkpt lat="44.65911" lon="1.26527">
        <ele>248</ele>
        <time>2000-01-01T01:37:04.000Z</time>
      </trkpt>
      <trkpt lat="44.65867" lon="1.26506">
        <ele>241</ele>
        <time>2000-01-01T01:37:14.000Z</time>
      </trkpt>
      <trkpt lat="44.6584" lon="1.26487">
        <ele>239</ele>
        <time>2000-01-01T01:37:24.000Z</time>
      </trkpt>
      <trkpt lat="44.65823" lon="1.26472">
        <ele>239</ele>
        <time>2000-01-01T01:37:34.000Z</time>
      </trkpt>
      <trkpt lat="44.65811" lon="1.26459">
        <ele>238.6</ele>
        <time>2000-01-01T01:37:44.000Z</time>
      </trkpt>
      <trkpt lat="44.65799" lon="1.2645">
        <ele>238</ele>
        <time>2000-01-01T01:37:54.000Z</time>
      </trkpt>
      <trkpt lat="44.65775" lon="1.26446">
        <ele>237</ele>
        <time>2000-01-01T01:38:04.000Z</time>
      </trkpt>
      <trkpt lat="44.65758" lon="1.26454">
        <ele>236.3</ele>
        <time>2000-01-01T01:38:14.000Z</time>
      </trkpt>
      <trkpt lat="44.65697" lon="1.26485">
        <ele>234</ele>
        <time>2000-01-01T01:38:24.000Z</time>
      </trkpt>
      <trkpt lat="44.65698" lon="1.26504">
        <ele>232.2</ele>
        <time>2000-01-01T01:38:34.000Z</time>
      </trkpt>
      <trkpt lat="44.65694" lon="1.26521">
        <ele>229</ele>
        <time>2000-01-01T01:38:44.000Z</time>
      </trkpt>
      <trkpt lat="44.65669" lon="1.26536">
        <ele>228</ele>
        <time>2000-01-01T01:38:54.000Z</time>
      </trkpt>
      <trkpt lat="44.65652" lon="1.26545">
        <ele>225.8</ele>
        <time>2000-01-01T01:39:04.000Z</time>
      </trkpt>
      <trkpt lat="44.65638" lon="1.26561">
        <ele>224</ele>
        <time>2000-01-01T01:39:14.000Z</time>
      </trkpt>
      <trkpt lat="44.6563" lon="1.26577">
        <ele>222.1</ele>
        <time>2000-01-01T01:39:24.000Z</time>
      </trkpt>
      <trkpt lat="44.65621" lon="1.26597">
        <ele>223</ele>
        <time>2000-01-01T01:39:34.000Z</time>
      </trkpt>
      <trkpt lat="44.65621" lon="1.26622">
        <ele>219.8</ele>
        <time>2000-01-01T01:39:44.000Z</time>
      </trkpt>
      <trkpt lat="44.65626" lon="1.26649">
        <ele>218</ele>
        <time>2000-01-01T01:39:54.000Z</time>
      </trkpt>
      <trkpt lat="44.65629" lon="1.26673">
        <ele>214.4</ele>
        <time>2000-01-01T01:40:04.000Z</time>
      </trkpt>
      <trkpt lat="44.65629" lon="1.26692">
        <ele>214</ele>
        <time>2000-01-01T01:40:14.000Z</time>
      </trkpt>
      <trkpt lat="44.65619" lon="1.26719">
        <ele>212</ele>
        <time>2000-01-01T01:40:24.000Z</time>
      </trkpt>
      <trkpt lat="44.65596" lon="1.26742">
        <ele>206</ele>
        <time>2000-01-01T01:40:34.000Z</time>
      </trkpt>
      <trkpt lat="44.65562" lon="1.26774">
        <ele>200</ele>
        <time>2000-01-01T01:40:44.000Z</time>
      </trkpt>
      <trkpt lat="44.65537" lon="1.26799">
        <ele>196</ele>
        <time>2000-01-01T01:40:54.000Z</time>
      </trkpt>
      <trkpt lat="44.6551" lon="1.26838">
        <ele>190</ele>
        <time>2000-01-01T01:41:04.000Z</time>
      </trkpt>
      <trkpt lat="44.65484" lon="1.26885">
        <ele>177</ele>
        <time>2000-01-01T01:41:14.000Z</time>
      </trkpt>
      <trkpt lat="44.65494" lon="1.26915">
        <ele>174</ele>
        <time>2000-01-01T01:41:24.000Z</time>
      </trkpt>
      <trkpt lat="44.65495" lon="1.26945">
        <ele>172</ele>
        <time>2000-01-01T01:41:34.000Z</time>
      </trkpt>
      <trkpt lat="44.65494" lon="1.26985">
        <ele>170</ele>
        <time>2000-01-01T01:41:44.000Z</time>
      </trkpt>
      <trkpt lat="44.65492" lon="1.27045">
        <ele>170</ele>
        <time>2000-01-01T01:41:54.000Z</time>
      </trkpt>
      <trkpt lat="44.65497" lon="1.27082">
        <ele>170</ele>
        <time>2000-01-01T01:42:04.000Z</time>
      </trkpt>
      <trkpt lat="44.65504" lon="1.27099">
        <ele>172.4</ele>
        <time>2000-01-01T01:42:14.000Z</time>
      </trkpt>
      <trkpt lat="44.65532" lon="1.27118">
        <ele>170</ele>
        <time>2000-01-01T01:42:24.000Z</time>
      </trkpt>
      <trkpt lat="44.65575" lon="1.27141">
        <ele>174</ele>
        <time>2000-01-01T01:42:34.000Z</time>
      </trkpt>
      <trkpt lat="44.65568" lon="1.27151">
        <ele>177.8</ele>
        <time>2000-01-01T01:42:44.000Z</time>
      </trkpt>
      <trkpt lat="44.65548" lon="1.27154">
        <ele>177</ele>
        <time>2000-01-01T01:42:54.000Z</time>
      </trkpt>
      <trkpt lat="44.65511" lon="1.27158">
        <ele>178</ele>
        <time>2000-01-01T01:43:04.000Z</time>
      </trkpt>
      <trkpt lat="44.65503" lon="1.27161">
        <ele>182.5</ele>
        <time>2000-01-01T01:43:14.000Z</time>
      </trkpt>
      <trkpt lat="44.65513" lon="1.27168">
        <ele>182</ele>
        <time>2000-01-01T01:43:24.000Z</time>
      </trkpt>
      <trkpt lat="44.65537" lon="1.27206">
        <ele>192</ele>
        <time>2000-01-01T01:43:34.000Z</time>
      </trkpt>
      <trkpt lat="44.65566" lon="1.27255">
        <ele>203</ele>
        <time>2000-01-01T01:43:44.000Z</time>
      </trkpt>
      <trkpt lat="44.65588" lon="1.27297">
        <ele>209</ele>
        <time>2000-01-01T01:43:54.000Z</time>
      </trkpt>
      <trkpt lat="44.65608" lon="1.27332">
        <ele>214</ele>
        <time>2000-01-01T01:44:04.000Z</time>
      </trkpt>
      <trkpt lat="44.65625" lon="1.27362">
        <ele>216</ele>
        <time>2000-01-01T01:44:14.000Z</time>
      </trkpt>
      <trkpt lat="44.65648" lon="1.27402">
        <ele>219</ele>
        <time>2000-01-01T01:44:24.000Z</time>
      </trkpt>
      <trkpt lat="44.6568" lon="1.27441">
        <ele>220</ele>
        <time>2000-01-01T01:44:34.000Z</time>
      </trkpt>
      <trkpt lat="44.65696" lon="1.27465">
        <ele>221</ele>
        <time>2000-01-01T01:44:44.000Z</time>
      </trkpt>
      <trkpt lat="44.65715" lon="1.275">
        <ele>224</ele>
        <time>2000-01-01T01:44:54.000Z</time>
      </trkpt>
      <trkpt lat="44.65739" lon="1.27556">
        <ele>226</ele>
        <time>2000-01-01T01:45:04.000Z</time>
      </trkpt>
      <trkpt lat="44.65754" lon="1.27594">
        <ele>229</ele>
        <time>2000-01-01T01:45:14.000Z</time>
      </trkpt>
      <trkpt lat="44.65769" lon="1.27619">
        <ele>230</ele>
        <time>2000-01-01T01:45:24.000Z</time>
      </trkpt>
      <trkpt lat="44.65788" lon="1.2767">
        <ele>230</ele>
        <time>2000-01-01T01:45:34.000Z</time>
      </trkpt>
      <trkpt lat="44.65789" lon="1.27685">
        <ele>231.8</ele>
        <time>2000-01-01T01:45:44.000Z</time>
      </trkpt>
      <trkpt lat="44.65797" lon="1.27713">
        <ele>229</ele>
        <time>2000-01-01T01:45:54.000Z</time>
      </trkpt>
      <trkpt lat="44.65817" lon="1.27762">
        <ele>229</ele>
        <time>2000-01-01T01:46:04.000Z</time>
      </trkpt>
      <trkpt lat="44.65821" lon="1.27826">
        <ele>225</ele>
        <time>2000-01-01T01:46:14.000Z</time>
      </trkpt>
      <trkpt lat="44.6582" lon="1.27874">
        <ele>222</ele>
        <time>2000-01-01T01:46:24.000Z</time>
      </trkpt>
      <trkpt lat="44.65814" lon="1.27908">
        <ele>221</ele>
        <time>2000-01-01T01:46:34.000Z</time>
      </trkpt>
      <trkpt lat="44.65797" lon="1.27962">
        <ele>221</ele>
        <time>2000-01-01T01:46:44.000Z</time>
      </trkpt>
      <trkpt lat="44.6579" lon="1.27995">
        <ele>222</ele>
        <time>2000-01-01T01:46:54.000Z</time>
      </trkpt>
      <trkpt lat="44.65789" lon="1.28046">
        <ele>226</ele>
        <time>2000-01-01T01:47:04.000Z</time>
      </trkpt>
      <trkpt lat="44.658" lon="1.28096">
        <ele>229</ele>
        <time>2000-01-01T01:47:14.000Z</time>
      </trkpt>
      <trkpt lat="44.65821" lon="1.28156">
        <ele>230</ele>
        <time>2000-01-01T01:47:24.000Z</time>
      </trkpt>
      <trkpt lat="44.65834" lon="1.28163">
        <ele>229.7</ele>
        <time>2000-01-01T01:47:34.000Z</time>
      </trkpt>
      <trkpt lat="44.6584" lon="1.28174">
        <ele>230</ele>
        <time>2000-01-01T01:47:44.000Z</time>
      </trkpt>
      <trkpt lat="44.65861" lon="1.28209">
        <ele>228</ele>
        <time>2000-01-01T01:47:54.000Z</time>
      </trkpt>
      <trkpt lat="44.65869" lon="1.28229">
        <ele>226.3</ele>
        <time>2000-01-01T01:48:04.000Z</time>
      </trkpt>
      <trkpt lat="44.65883" lon="1.28284">
        <ele>228</ele>
        <time>2000-01-01T01:48:14.000Z</time>
      </trkpt>
      <trkpt lat="44.65896" lon="1.28294">
        <ele>226.3</ele>
        <time>2000-01-01T01:48:24.000Z</time>
      </trkpt>
      <trkpt lat="44.65926" lon="1.28324">
        <ele>229</ele>
        <time>2000-01-01T01:48:34.000Z</time>
      </trkpt>
      <trkpt lat="44.65935" lon="1.28338">
        <ele>230.8</ele>
        <time>2000-01-01T01:48:44.000Z</time>
      </trkpt>
      <trkpt lat="44.65984" lon="1.28401">
        <ele>236</ele>
        <time>2000-01-01T01:48:54.000Z</time>
      </trkpt>
      <trkpt lat="44.66008" lon="1.28444">
        <ele>240</ele>
        <time>2000-01-01T01:49:04.000Z</time>
      </trkpt>
      <trkpt lat="44.66019" lon="1.28493">
        <ele>241</ele>
        <time>2000-01-01T01:49:14.000Z</time>
      </trkpt>
      <trkpt lat="44.66013" lon="1.28549">
        <ele>243</ele>
        <time>2000-01-01T01:49:24.000Z</time>
      </trkpt>
      <trkpt lat="44.66015" lon="1.28585">
        <ele>242</ele>
        <time>2000-01-01T01:49:34.000Z</time>
      </trkpt>
      <trkpt lat="44.6602" lon="1.28607">
        <ele>241.3</ele>
        <time>2000-01-01T01:49:44.000Z</time>
      </trkpt>
      <trkpt lat="44.66029" lon="1.28626">
        <ele>242</ele>
        <time>2000-01-01T01:49:54.000Z</time>
      </trkpt>
      <trkpt lat="44.66044" lon="1.28651">
        <ele>242</ele>
        <time>2000-01-01T01:50:04.000Z</time>
      </trkpt>
      <trkpt lat="44.6605" lon="1.28673">
        <ele>241.8</ele>
        <time>2000-01-01T01:50:14.000Z</time>
      </trkpt>
      <trkpt lat="44.66057" lon="1.28707">
        <ele>242</ele>
        <time>2000-01-01T01:50:24.000Z</time>
      </trkpt>
      <trkpt lat="44.6608" lon="1.28718">
        <ele>241</ele>
        <time>2000-01-01T01:50:34.000Z</time>
      </trkpt>
      <trkpt lat="44.66102" lon="1.28735">
        <ele>239</ele>
        <time>2000-01-01T01:50:44.000Z</time>
      </trkpt>
      <trkpt lat="44.66113" lon="1.28732">
        <ele>238.5</ele>
        <time>2000-01-01T01:50:54.000Z</time>
      </trkpt>
      <trkpt lat="44.66132" lon="1.28724">
        <ele>237</ele>
        <time>2000-01-01T01:51:04.000Z</time>
      </trkpt>
      <trkpt lat="44.66158" lon="1.28723">
        <ele>235</ele>
        <time>2000-01-01T01:51:14.000Z</time>
      </trkpt>
      <trkpt lat="44.66188" lon="1.28721">
        <ele>234</ele>
        <time>2000-01-01T01:51:24.000Z</time>
      </trkpt>
      <trkpt lat="44.66198" lon="1.28725">
        <ele>233.9</ele>
        <time>2000-01-01T01:51:34.000Z</time>
      </trkpt>
      <trkpt lat="44.6621" lon="1.28746">
        <ele>233</ele>
        <time>2000-01-01T01:51:44.000Z</time>
      </trkpt>
      <trkpt lat="44.66223" lon="1.28752">
        <ele>232.8</ele>
        <time>2000-01-01T01:51:54.000Z</time>
      </trkpt>
      <trkpt lat="44.66235" lon="1.28747">
        <ele>232</ele>
        <time>2000-01-01T01:52:04.000Z</time>
      </trkpt>
      <trkpt lat="44.66269" lon="1.28722">
        <ele>231</ele>
        <time>2000-01-01T01:52:14.000Z</time>
      </trkpt>
      <trkpt lat="44.66301" lon="1.28697">
        <ele>228</ele>
        <time>2000-01-01T01:52:24.000Z</time>
      </trkpt>
      <trkpt lat="44.6632" lon="1.28665">
        <ele>226</ele>
        <time>2000-01-01T01:52:34.000Z</time>
      </trkpt>
      <trkpt lat="44.6635" lon="1.28625">
        <ele>222</ele>
        <time>2000-01-01T01:52:44.000Z</time>
      </trkpt>
      <trkpt lat="44.66367" lon="1.28622">
        <ele>222.6</ele>
        <time>2000-01-01T01:52:54.000Z</time>
      </trkpt>
      <trkpt lat="44.66385" lon="1.28624">
        <ele>222</ele>
        <time>2000-01-01T01:53:04.000Z</time>
      </trkpt>
      <trkpt lat="44.66401" lon="1.28621">
        <ele>221.6</ele>
        <time>2000-01-01T01:53:14.000Z</time>
      </trkpt>
      <trkpt lat="44.6641" lon="1.28618">
        <ele>221</ele>
        <time>2000-01-01T01:53:24.000Z</time>
      </trkpt>
      <trkpt lat="44.66436" lon="1.28584">
        <ele>217</ele>
        <time>2000-01-01T01:53:34.000Z</time>
      </trkpt>
      <trkpt lat="44.66454" lon="1.28556">
        <ele>214</ele>
        <time>2000-01-01T01:53:44.000Z</time>
      </trkpt>
      <trkpt lat="44.66464" lon="1.28497">
        <ele>211</ele>
        <time>2000-01-01T01:53:54.000Z</time>
      </trkpt>
      <trkpt lat="44.66477" lon="1.28465">
        <ele>208</ele>
        <time>2000-01-01T01:54:04.000Z</time>
      </trkpt>
      <trkpt lat="44.66493" lon="1.28434">
        <ele>204</ele>
        <time>2000-01-01T01:54:14.000Z</time>
      </trkpt>
      <trkpt lat="44.66513" lon="1.28414">
        <ele>200</ele>
        <time>2000-01-01T01:54:24.000Z</time>
      </trkpt>
      <trkpt lat="44.66535" lon="1.28396">
        <ele>196</ele>
        <time>2000-01-01T01:54:34.000Z</time>
      </trkpt>
      <trkpt lat="44.6655" lon="1.28366">
        <ele>192</ele>
        <time>2000-01-01T01:54:44.000Z</time>
      </trkpt>
      <trkpt lat="44.66576" lon="1.28319">
        <ele>189</ele>
        <time>2000-01-01T01:54:54.000Z</time>
      </trkpt>
      <trkpt lat="44.66588" lon="1.28285">
        <ele>187</ele>
        <time>2000-01-01T01:55:04.000Z</time>
      </trkpt>
      <trkpt lat="44.66604" lon="1.28242">
        <ele>186</ele>
        <time>2000-01-01T01:55:14.000Z</time>
      </trkpt>
      <trkpt lat="44.66602" lon="1.28214">
        <ele>185</ele>
        <time>2000-01-01T01:55:24.000Z</time>
      </trkpt>
      <trkpt lat="44.66605" lon="1.28189">
        <ele>186.5</ele>
        <time>2000-01-01T01:55:34.000Z</time>
      </trkpt>
      <trkpt lat="44.66619" lon="1.28147">
        <ele>183</ele>
        <time>2000-01-01T01:55:44.000Z</time>
      </trkpt>
      <trkpt lat="44.66629" lon="1.28115">
        <ele>182</ele>
        <time>2000-01-01T01:55:54.000Z</time>
      </trkpt>
      <trkpt lat="44.66639" lon="1.28087">
        <ele>181</ele>
        <time>2000-01-01T01:56:04.000Z</time>
      </trkpt>
      <trkpt lat="44.66649" lon="1.2807">
        <ele>183.2</ele>
        <time>2000-01-01T01:56:14.000Z</time>
      </trkpt>
      <trkpt lat="44.66671" lon="1.28044">
        <ele>181</ele>
        <time>2000-01-01T01:56:24.000Z</time>
      </trkpt>
      <trkpt lat="44.66691" lon="1.28018">
        <ele>179</ele>
        <time>2000-01-01T01:56:34.000Z</time>
      </trkpt>
      <trkpt lat="44.66704" lon="1.27997">
        <ele>178</ele>
        <time>2000-01-01T01:56:44.000Z</time>
      </trkpt>
      <trkpt lat="44.66728" lon="1.27973">
        <ele>178</ele>
        <time>2000-01-01T01:56:54.000Z</time>
      </trkpt>
      <trkpt lat="44.66754" lon="1.27957">
        <ele>177</ele>
        <time>2000-01-01T01:57:04.000Z</time>
      </trkpt>
      <trkpt lat="44.66793" lon="1.27933">
        <ele>176</ele>
        <time>2000-01-01T01:57:14.000Z</time>
      </trkpt>
      <trkpt lat="44.66819" lon="1.27921">
        <ele>176</ele>
        <time>2000-01-01T01:57:24.000Z</time>
      </trkpt>
      <trkpt lat="44.66853" lon="1.27906">
        <ele>175</ele>
        <time>2000-01-01T01:57:34.000Z</time>
      </trkpt>
      <trkpt lat="44.66882" lon="1.27906">
        <ele>174</ele>
        <time>2000-01-01T01:57:44.000Z</time>
      </trkpt>
      <trkpt lat="44.66917" lon="1.27907">
        <ele>172</ele>
        <time>2000-01-01T01:57:54.000Z</time>
      </trkpt>
      <trkpt lat="44.66918" lon="1.27882">
        <ele>173.7</ele>
        <time>2000-01-01T01:58:04.000Z</time>
      </trkpt>
      <trkpt lat="44.66916" lon="1.2785">
        <ele>172</ele>
        <time>2000-01-01T01:58:14.000Z</time>
      </trkpt>
      <trkpt lat="44.66916" lon="1.27816">
        <ele>176</ele>
        <time>2000-01-01T01:58:24.000Z</time>
      </trkpt>
      <trkpt lat="44.66916" lon="1.27781">
        <ele>175</ele>
        <time>2000-01-01T01:58:34.000Z</time>
      </trkpt>
      <trkpt lat="44.6694" lon="1.2778">
        <ele>175</ele>
        <time>2000-01-01T01:58:44.000Z</time>
      </trkpt>
      <trkpt lat="44.66965" lon="1.2778">
        <ele>174</ele>
        <time>2000-01-01T01:58:54.000Z</time>
      </trkpt>
      <trkpt lat="44.66989" lon="1.27777">
        <ele>173</ele>
        <time>2000-01-01T01:59:04.000Z</time>
      </trkpt>
      <trkpt lat="44.67013" lon="1.27774">
        <ele>171</ele>
        <time>2000-01-01T01:59:14.000Z</time>
      </trkpt>
      <trkpt lat="44.67042" lon="1.27766">
        <ele>170</ele>
        <time>2000-01-01T01:59:24.000Z</time>
      </trkpt>
      <trkpt lat="44.67086" lon="1.27755">
        <ele>169</ele>
        <time>2000-01-01T01:59:34.000Z</time>
      </trkpt>
      <trkpt lat="44.67118" lon="1.27752">
        <ele>167</ele>
        <time>2000-01-01T01:59:44.000Z</time>
      </trkpt>
      <trkpt lat="44.67144" lon="1.27749">
        <ele>164</ele>
        <time>2000-01-01T01:59:54.000Z</time>
      </trkpt>
      <trkpt lat="44.67179" lon="1.27746">
        <ele>162</ele>
        <time>2000-01-01T02:00:04.000Z</time>
      </trkpt>
      <trkpt lat="44.67208" lon="1.27749">
        <ele>161</ele>
        <time>2000-01-01T02:00:14.000Z</time>
      </trkpt>
      <trkpt lat="44.6725" lon="1.27754">
        <ele>159</ele>
        <time>2000-01-01T02:00:24.000Z</time>
      </trkpt>
      <trkpt lat="44.67272" lon="1.27748">
        <ele>157</ele>
        <time>2000-01-01T02:00:34.000Z</time>
      </trkpt>
      <trkpt lat="44.67289" lon="1.27739">
        <ele>157.2</ele>
        <time>2000-01-01T02:00:44.000Z</time>
      </trkpt>
      <trkpt lat="44.67324" lon="1.27713">
        <ele>155</ele>
        <time>2000-01-01T02:00:54.000Z</time>
      </trkpt>
      <trkpt lat="44.67339" lon="1.27708">
        <ele>155.3</ele>
        <time>2000-01-01T02:01:04.000Z</time>
      </trkpt>
      <trkpt lat="44.67384" lon="1.2771">
        <ele>154</ele>
        <time>2000-01-01T02:01:14.000Z</time>
      </trkpt>
      <trkpt lat="44.67409" lon="1.27695">
        <ele>154</ele>
        <time>2000-01-01T02:01:24.000Z</time>
      </trkpt>
      <trkpt lat="44.67429" lon="1.27669">
        <ele>154</ele>
        <time>2000-01-01T02:01:34.000Z</time>
      </trkpt>
      <trkpt lat="44.67458" lon="1.27632">
        <ele>155</ele>
        <time>2000-01-01T02:01:44.000Z</time>
      </trkpt>
      <trkpt lat="44.67471" lon="1.27622">
        <ele>157.4</ele>
        <time>2000-01-01T02:01:54.000Z</time>
      </trkpt>
      <trkpt lat="44.67479" lon="1.27623">
        <ele>157</ele>
        <time>2000-01-01T02:02:04.000Z</time>
      </trkpt>
      <trkpt lat="44.67513" lon="1.27659">
        <ele>159</ele>
        <time>2000-01-01T02:02:14.000Z</time>
      </trkpt>
      <trkpt lat="44.67529" lon="1.27672">
        <ele>159.1</ele>
        <time>2000-01-01T02:02:24.000Z</time>
      </trkpt>
      <trkpt lat="44.67553" lon="1.27677">
        <ele>160</ele>
        <time>2000-01-01T02:02:34.000Z</time>
      </trkpt>
      <trkpt lat="44.67578" lon="1.27673">
        <ele>161</ele>
        <time>2000-01-01T02:02:44.000Z</time>
      </trkpt>
      <trkpt lat="44.67598" lon="1.2768">
        <ele>163</ele>
        <time>2000-01-01T02:02:54.000Z</time>
      </trkpt>
      <trkpt lat="44.67616" lon="1.27685">
        <ele>163.3</ele>
        <time>2000-01-01T02:03:04.000Z</time>
      </trkpt>
      <trkpt lat="44.67672" lon="1.27695">
        <ele>167</ele>
        <time>2000-01-01T02:03:14.000Z</time>
      </trkpt>
      <trkpt lat="44.67709" lon="1.27695">
        <ele>167</ele>
        <time>2000-01-01T02:03:24.000Z</time>
      </trkpt>
      <trkpt lat="44.67729" lon="1.27691">
        <ele>167</ele>
        <time>2000-01-01T02:03:34.000Z</time>
      </trkpt>
      <trkpt lat="44.67745" lon="1.27674">
        <ele>168</ele>
        <time>2000-01-01T02:03:44.000Z</time>
      </trkpt>
      <trkpt lat="44.67762" lon="1.27647">
        <ele>168</ele>
        <time>2000-01-01T02:03:54.000Z</time>
      </trkpt>
      <trkpt lat="44.67769" lon="1.27641">
        <ele>167.7</ele>
        <time>2000-01-01T02:04:04.000Z</time>
      </trkpt>
      <trkpt lat="44.67793" lon="1.27638">
        <ele>170</ele>
        <time>2000-01-01T02:04:14.000Z</time>
      </trkpt>
      <trkpt lat="44.67808" lon="1.27622">
        <ele>176</ele>
        <time>2000-01-01T02:04:24.000Z</time>
      </trkpt>
      <trkpt lat="44.67829" lon="1.27615">
        <ele>178</ele>
        <time>2000-01-01T02:04:34.000Z</time>
      </trkpt>
      <trkpt lat="44.67871" lon="1.27583">
        <ele>186</ele>
        <time>2000-01-01T02:04:44.000Z</time>
      </trkpt>
      <trkpt lat="44.67896" lon="1.27547">
        <ele>188</ele>
        <time>2000-01-01T02:04:54.000Z</time>
      </trkpt>
      <trkpt lat="44.67898" lon="1.27493">
        <ele>189</ele>
        <time>2000-01-01T02:05:04.000Z</time>
      </trkpt>
      <trkpt lat="44.67901" lon="1.27473">
        <ele>189.7</ele>
        <time>2000-01-01T02:05:14.000Z</time>
      </trkpt>
      <trkpt lat="44.67953" lon="1.27507">
        <ele>185.4</ele>
      </trkpt>
      <trkpt lat="44.68011" lon="1.27504">
        <ele>179.8</ele>
      </trkpt>
      <trkpt lat="44.68054" lon="1.27476">
        <ele>176.9</ele>
      </trkpt>
      <trkpt lat="44.68097" lon="1.27461">
        <ele>172.7</ele>
      </trkpt>
      <trkpt lat="44.68124" lon="1.27474">
        <ele>168.5</ele>
      </trkpt>
      <trkpt lat="44.68129" lon="1.27484">
        <ele>167.7</ele>
      </trkpt>
      <trkpt lat="44.68176" lon="1.27454">
        <ele>163.6</ele>
      </trkpt>
      <trkpt lat="44.68213" lon="1.27368">
        <ele>158.5</ele>
      </trkpt>
      <trkpt lat="44.68255" lon="1.27334">
        <ele>153.4</ele>
      </trkpt>
      <trkpt lat="44.68204" lon="1.27107">
        <ele>156</ele>
        <time>2000-01-01T02:09:44.000Z</time>
      </trkpt>
      <trkpt lat="44.68209" lon="1.27109">
        <ele>155.9</ele>
        <time>2000-01-01T02:09:54.000Z</time>
      </trkpt>
      <trkpt lat="44.6822" lon="1.27107">
        <ele>154.3</ele>
        <time>2000-01-01T02:10:04.000Z</time>
      </trkpt>
    </trkseg>
  </trk>
</gpx>